createdAt,value
2019-03-17T00:00:19.702Z,7.49
2019-03-17T00:01:19.729Z,7.47
2019-03-17T00:02:19.691Z,7.45
2019-03-17T00:03:19.678Z,7.50
2019-03-17T00:04:30.902Z,7.47
2019-03-17T00:05:19.711Z,7.49
2019-03-17T00:06:19.658Z,7.52
2019-03-17T00:07:19.639Z,7.55
2019-03-17T00:08:19.638Z,7.45
2019-03-17T00:09:19.630Z,7.52
2019-03-17T00:10:19.626Z,7.52
2019-03-17T00:11:19.621Z,7.59
2019-03-17T00:12:19.641Z,7.53
2019-03-17T00:13:19.598Z,7.60
2019-03-17T00:14:19.589Z,7.47
2019-03-17T00:15:19.580Z,7.56
2019-03-17T00:16:19.572Z,7.45
2019-03-17T00:17:19.576Z,7.37
2019-03-17T00:18:19.570Z,7.38
2019-03-17T00:19:19.550Z,7.34
2019-03-17T00:20:19.541Z,7.41
2019-03-17T00:21:19.537Z,7.50
2019-03-17T00:22:19.520Z,7.44
2019-03-17T00:23:19.509Z,7.52
2019-03-17T00:24:19.513Z,7.40
2019-03-17T00:25:19.510Z,7.44
2019-03-17T00:26:19.485Z,7.49
2019-03-17T00:27:19.477Z,7.55
2019-03-17T00:28:19.486Z,7.40
2019-03-17T00:29:19.462Z,7.24
2019-03-17T00:30:19.456Z,7.35
2019-03-17T00:31:24.252Z,7.42
2019-03-17T00:32:19.439Z,7.32
2019-03-17T00:33:19.487Z,7.37
2019-03-17T00:34:19.433Z,7.50
2019-03-17T00:35:19.413Z,7.35
2019-03-17T00:36:19.407Z,7.16
2019-03-17T00:37:19.415Z,7.13
2019-03-17T00:38:19.403Z,7.08
2019-03-17T00:39:19.402Z,7.19
2019-03-17T00:40:19.376Z,7.02
2019-03-17T00:41:19.361Z,7.08
2019-03-17T00:42:19.359Z,7.09
2019-03-17T00:43:19.349Z,6.98
2019-03-17T00:44:19.338Z,7.12
2019-03-17T00:45:19.353Z,7.09
2019-03-17T00:46:19.326Z,7.16
2019-03-17T00:47:19.363Z,7.24
2019-03-17T00:48:19.314Z,7.17
2019-03-17T00:49:19.300Z,7.12
2019-03-17T00:50:19.321Z,6.94
2019-03-17T00:51:19.302Z,7.07
2019-03-17T00:52:19.284Z,7.22
2019-03-17T00:53:19.262Z,7.17
2019-03-17T00:54:19.247Z,6.97
2019-03-17T00:55:19.248Z,6.97
2019-03-17T00:56:19.239Z,6.98
2019-03-17T00:57:19.224Z,6.97
2019-03-17T00:58:19.256Z,6.97
2019-03-17T00:59:19.217Z,6.77
2019-03-17T01:00:19.198Z,6.95
2019-03-17T01:01:19.201Z,7.08
2019-03-17T01:02:19.192Z,7.13
2019-03-17T01:03:19.179Z,7.04
2019-03-17T01:04:19.169Z,6.97
2019-03-17T01:05:19.179Z,6.99
2019-03-17T01:06:19.150Z,7.01
2019-03-17T01:07:19.143Z,6.99
2019-03-17T01:08:19.136Z,7.01
2019-03-17T01:09:19.149Z,6.86
2019-03-17T01:10:19.122Z,6.77
2019-03-17T01:11:19.116Z,6.65
2019-03-17T01:12:19.126Z,6.71
2019-03-17T01:13:19.090Z,6.66
2019-03-17T01:14:19.089Z,6.71
2019-03-17T01:15:19.076Z,6.69
2019-03-17T01:16:19.101Z,6.61
2019-03-17T01:17:19.068Z,6.63
2019-03-17T01:18:19.056Z,6.66
2019-03-17T01:19:19.036Z,6.56
2019-03-17T01:20:19.029Z,6.36
2019-03-17T01:21:19.031Z,6.29
2019-03-17T01:22:19.016Z,6.28
2019-03-17T01:23:19.014Z,6.29
2019-03-17T01:24:18.995Z,6.36
2019-03-17T01:25:18.988Z,6.36
2019-03-17T01:26:18.983Z,6.35
2019-03-17T01:27:18.984Z,6.46
2019-03-17T01:28:18.961Z,6.36
2019-03-17T01:29:18.958Z,6.35
2019-03-17T01:30:18.944Z,6.54
2019-03-17T01:31:18.931Z,6.53
2019-03-17T01:32:18.931Z,6.56
2019-03-17T01:33:18.914Z,6.48
2019-03-17T01:34:18.912Z,6.53
2019-03-17T01:35:18.893Z,6.50
2019-03-17T01:36:18.910Z,6.65
2019-03-17T01:37:18.893Z,6.54
2019-03-17T01:38:18.880Z,6.43
2019-03-17T01:39:18.857Z,6.56
2019-03-17T01:40:18.864Z,6.48
2019-03-17T01:41:18.864Z,6.56
2019-03-17T01:42:18.833Z,6.36
2019-03-17T01:43:18.829Z,6.41
2019-03-17T01:44:18.811Z,6.50
2019-03-17T01:45:18.808Z,6.56
2019-03-17T01:46:18.796Z,6.51
2019-03-17T01:47:18.783Z,6.53
2019-03-17T01:48:18.779Z,6.35
2019-03-17T01:49:18.778Z,6.47
2019-03-17T01:50:18.764Z,6.54
2019-03-17T01:51:18.751Z,6.53
2019-03-17T01:52:18.742Z,6.44
2019-03-17T01:53:18.758Z,6.35
2019-03-17T01:54:18.728Z,6.33
2019-03-17T01:55:18.737Z,6.29
2019-03-17T01:56:18.717Z,6.32
2019-03-17T01:57:18.706Z,6.33
2019-03-17T01:58:18.688Z,6.26
2019-03-17T01:59:18.682Z,6.00
2019-03-17T02:00:18.728Z,5.98
2019-03-17T02:01:18.663Z,6.04
2019-03-17T02:02:18.663Z,5.98
2019-03-17T02:03:18.646Z,6.01
2019-03-17T02:04:18.637Z,6.13
2019-03-17T02:05:22.374Z,6.10
2019-03-17T02:06:18.619Z,6.14
2019-03-17T02:07:18.608Z,6.13
2019-03-17T02:08:18.622Z,6.29
2019-03-17T02:09:18.591Z,6.35
2019-03-17T02:10:18.611Z,6.36
2019-03-17T02:11:18.573Z,6.32
2019-03-17T02:12:18.572Z,6.40
2019-03-17T02:13:18.566Z,6.16
2019-03-17T02:14:18.558Z,6.16
2019-03-17T02:15:18.544Z,6.28
2019-03-17T02:16:18.563Z,6.14
2019-03-17T02:17:18.520Z,6.11
2019-03-17T02:18:18.516Z,6.30
2019-03-17T02:19:18.516Z,6.30
2019-03-17T02:20:18.502Z,6.38
2019-03-17T02:21:18.479Z,6.29
2019-03-17T02:22:18.474Z,6.30
2019-03-17T02:23:18.498Z,6.29
2019-03-17T02:24:18.450Z,6.26
2019-03-17T02:25:18.451Z,6.11
2019-03-17T02:26:18.445Z,6.18
2019-03-17T02:27:18.421Z,6.29
2019-03-17T02:28:18.428Z,6.26
2019-03-17T02:29:18.414Z,6.41
2019-03-17T02:30:18.432Z,6.35
2019-03-17T02:31:18.392Z,6.29
2019-03-17T02:32:18.385Z,6.36
2019-03-17T02:33:18.377Z,6.32
2019-03-17T02:34:18.377Z,6.35
2019-03-17T02:35:18.371Z,6.35
2019-03-17T02:36:18.378Z,6.38
2019-03-17T02:37:18.347Z,6.44
2019-03-17T02:38:18.325Z,6.47
2019-03-17T02:39:18.315Z,6.54
2019-03-17T02:40:18.310Z,6.40
2019-03-17T02:41:18.297Z,6.35
2019-03-17T02:42:18.289Z,6.32
2019-03-17T02:43:18.277Z,6.26
2019-03-17T02:44:18.269Z,6.29
2019-03-17T02:45:18.263Z,6.13
2019-03-17T02:46:18.268Z,6.14
2019-03-17T02:47:18.240Z,6.25
2019-03-17T02:48:18.252Z,6.32
2019-03-17T02:49:18.241Z,6.09
2019-03-17T02:50:18.323Z,6.09
2019-03-17T02:51:18.239Z,5.96
2019-03-17T02:52:18.194Z,5.83
2019-03-17T02:53:18.190Z,5.83
2019-03-17T02:54:18.196Z,5.83
2019-03-17T02:55:18.179Z,5.78
2019-03-17T02:56:18.257Z,5.77
2019-03-17T02:57:18.150Z,5.74
2019-03-17T02:58:18.689Z,5.67
2019-03-17T02:59:18.137Z,5.82
2019-03-17T03:00:18.758Z,5.57
2019-03-17T03:14:09.066Z,5.56
2019-03-17T03:15:09.029Z,5.45
2019-03-17T03:16:09.019Z,5.64
2019-03-17T03:17:09.007Z,5.71
2019-03-17T03:18:08.995Z,5.50
2019-03-17T03:19:08.980Z,5.49
2019-03-17T03:20:08.975Z,5.53
2019-03-17T03:21:08.954Z,5.63
2019-03-17T03:22:08.944Z,5.60
2019-03-17T03:23:08.939Z,5.53
2019-03-17T03:24:08.918Z,5.43
2019-03-17T03:25:08.909Z,5.35
2019-03-17T03:26:08.901Z,5.46
2019-03-17T03:27:08.887Z,5.34
2019-03-17T03:28:08.868Z,5.43
2019-03-17T03:29:08.869Z,5.41
2019-03-17T03:30:08.855Z,5.38
2019-03-17T03:31:08.853Z,5.38
2019-03-17T03:32:08.837Z,5.23
2019-03-17T03:33:08.827Z,5.37
2019-03-17T03:34:08.849Z,5.35
2019-03-17T03:35:08.806Z,5.35
2019-03-17T03:36:11.501Z,5.35
2019-03-17T03:37:08.782Z,5.27
2019-03-17T03:38:08.770Z,5.32
2019-03-17T03:39:08.763Z,5.32
2019-03-17T03:40:08.775Z,5.32
2019-03-17T03:41:08.741Z,5.34
2019-03-17T03:42:08.732Z,5.37
2019-03-17T03:43:08.715Z,5.28
2019-03-17T03:44:08.720Z,5.37
2019-03-17T03:45:08.697Z,5.20
2019-03-17T03:46:08.713Z,5.10
2019-03-17T03:47:08.750Z,5.12
2019-03-17T03:48:08.672Z,5.14
2019-03-17T03:49:08.676Z,5.20
2019-03-17T03:50:08.655Z,5.17
2019-03-17T03:51:08.688Z,5.28
2019-03-17T03:52:08.623Z,5.31
2019-03-17T03:53:08.618Z,5.22
2019-03-17T03:54:08.611Z,5.12
2019-03-17T03:55:08.615Z,5.09
2019-03-17T03:56:08.583Z,5.14
2019-03-17T03:57:08.670Z,4.96
2019-03-17T03:58:08.581Z,5.01
2019-03-17T03:59:08.564Z,5.09
2019-03-17T04:00:08.572Z,4.98
2019-03-17T04:01:08.543Z,4.92
2019-03-17T04:02:08.539Z,4.89
2019-03-17T04:03:08.520Z,4.94
2019-03-17T04:04:08.502Z,4.86
2019-03-17T04:05:08.493Z,4.83
2019-03-17T04:06:08.485Z,4.83
2019-03-17T04:07:08.492Z,4.79
2019-03-17T04:08:08.494Z,4.83
2019-03-17T04:09:08.458Z,4.80
2019-03-17T04:10:08.450Z,4.83
2019-03-17T04:11:08.481Z,4.73
2019-03-17T04:12:08.456Z,4.72
2019-03-17T04:13:08.421Z,4.77
2019-03-17T04:14:08.403Z,4.67
2019-03-17T04:15:08.438Z,4.67
2019-03-17T04:16:08.383Z,4.65
2019-03-17T04:17:08.377Z,4.64
2019-03-17T04:18:08.462Z,4.72
2019-03-17T04:19:08.375Z,4.61
2019-03-17T04:20:08.368Z,4.42
2019-03-17T04:21:08.340Z,4.54
2019-03-17T04:22:08.322Z,4.67
2019-03-17T04:23:08.331Z,4.50
2019-03-17T04:24:08.309Z,4.54
2019-03-17T04:25:08.346Z,4.50
2019-03-17T04:26:08.325Z,4.37
2019-03-17T04:27:08.304Z,4.37
2019-03-17T04:28:08.259Z,4.39
2019-03-17T04:29:08.266Z,4.32
2019-03-17T04:30:08.241Z,4.42
2019-03-17T04:31:15.898Z,4.46
2019-03-17T04:33:12.717Z,4.46
2019-03-17T04:34:12.697Z,4.46
2019-03-17T04:35:12.690Z,4.42
2019-03-17T04:36:12.685Z,4.54
2019-03-17T04:37:12.662Z,4.54
2019-03-17T04:38:12.651Z,4.64
2019-03-17T04:39:12.799Z,4.61
2019-03-17T04:40:12.627Z,4.79
2019-03-17T04:41:12.634Z,4.77
2019-03-17T04:42:12.621Z,4.77
2019-03-17T04:43:12.598Z,4.83
2019-03-17T04:44:20.903Z,4.88
2019-03-17T04:45:12.572Z,4.96
2019-03-17T04:46:12.570Z,5.02
2019-03-17T04:47:12.576Z,5.10
2019-03-17T04:48:12.539Z,5.07
2019-03-17T04:49:12.546Z,5.13
2019-03-17T04:50:12.533Z,5.14
2019-03-17T04:51:12.509Z,5.27
2019-03-17T04:52:12.504Z,5.32
2019-03-17T04:53:12.495Z,5.38
2019-03-17T04:54:12.495Z,5.43
2019-03-17T04:55:12.469Z,5.46
2019-03-17T04:56:12.479Z,5.60
2019-03-17T04:57:12.455Z,5.70
2019-03-17T04:58:12.443Z,5.71
2019-03-17T04:59:12.436Z,5.82
2019-03-17T05:00:12.425Z,5.91
2019-03-17T05:01:12.425Z,5.86
2019-03-17T05:02:13.607Z,5.93
2019-03-17T05:03:12.399Z,6.09
2019-03-17T05:04:12.388Z,6.36
2019-03-17T05:05:12.380Z,6.58
2019-03-17T05:06:12.378Z,6.56
2019-03-17T05:07:12.354Z,6.68
2019-03-17T05:08:12.358Z,6.71
2019-03-17T05:09:12.346Z,6.79
2019-03-17T05:10:12.340Z,6.86
2019-03-17T05:11:12.339Z,6.91
2019-03-17T05:12:12.312Z,6.99
2019-03-17T05:13:12.299Z,6.94
2019-03-17T05:14:12.290Z,7.16
2019-03-17T05:15:12.287Z,7.15
2019-03-17T05:16:12.275Z,7.19
2019-03-17T05:17:12.267Z,7.27
2019-03-17T05:18:12.254Z,7.26
2019-03-17T05:19:12.243Z,7.24
2019-03-17T05:20:12.245Z,7.35
2019-03-17T05:21:12.228Z,7.38
2019-03-17T05:22:12.221Z,7.45
2019-03-17T05:23:12.214Z,7.38
2019-03-17T05:24:12.233Z,7.47
2019-03-17T05:25:12.189Z,7.45
2019-03-17T05:26:12.177Z,7.62
2019-03-17T05:27:12.181Z,7.62
2019-03-17T05:28:12.166Z,7.66
2019-03-17T05:29:12.158Z,7.71
2019-03-17T05:30:12.164Z,7.77
2019-03-17T05:31:12.145Z,7.78
2019-03-17T05:32:12.157Z,7.79
2019-03-17T05:33:12.124Z,7.84
2019-03-17T05:34:12.110Z,7.85
2019-03-17T05:35:12.104Z,7.90
2019-03-17T05:36:12.093Z,7.89
2019-03-17T05:37:12.089Z,7.89
2019-03-17T05:38:12.107Z,7.90
2019-03-17T05:39:12.105Z,7.93
2019-03-17T05:40:12.069Z,7.79
2019-03-17T05:41:12.069Z,7.84
2019-03-17T05:42:12.065Z,7.85
2019-03-17T05:43:12.033Z,7.82
2019-03-17T05:44:12.031Z,7.81
2019-03-17T05:45:12.019Z,7.89
2019-03-17T05:46:12.033Z,7.87
2019-03-17T05:47:12.015Z,7.94
2019-03-17T05:48:12.015Z,7.99
2019-03-17T05:49:12.003Z,8.28
2019-03-17T05:50:11.996Z,8.45
2019-03-17T05:51:11.973Z,8.50
2019-03-17T05:52:11.958Z,8.60
2019-03-17T05:53:11.948Z,8.78
2019-03-17T05:54:11.943Z,9.04
2019-03-17T05:55:11.977Z,9.09
2019-03-17T05:56:11.925Z,9.23
2019-03-17T05:57:11.932Z,9.28
2019-03-17T05:58:11.905Z,9.30
2019-03-17T05:59:11.912Z,9.49
2019-03-17T06:00:11.891Z,9.50
2019-03-17T06:01:11.880Z,9.66
2019-03-17T06:02:11.882Z,9.68
2019-03-17T06:03:11.868Z,9.70
2019-03-17T06:04:11.864Z,9.67
2019-03-17T06:05:11.866Z,9.73
2019-03-17T06:06:11.844Z,9.79
2019-03-17T06:07:18.584Z,9.63
2019-03-17T06:08:11.838Z,9.88
2019-03-17T06:09:11.823Z,9.78
2019-03-17T06:10:11.861Z,9.78
2019-03-17T06:11:11.818Z,9.81
2019-03-17T06:12:11.841Z,9.96
2019-03-17T06:13:11.808Z,9.93
2019-03-17T06:14:11.788Z,9.99
2019-03-17T06:15:11.794Z,9.93
2019-03-17T06:16:11.771Z,9.96
2019-03-17T06:17:11.794Z,10.07
2019-03-17T06:18:11.763Z,10.01
2019-03-17T06:19:11.765Z,10.03
2019-03-17T06:20:11.777Z,10.18
2019-03-17T06:21:11.733Z,10.17
2019-03-17T06:22:11.736Z,10.21
2019-03-17T06:23:11.736Z,10.03
2019-03-17T06:24:11.715Z,10.03
2019-03-17T06:25:11.732Z,10.19
2019-03-17T06:26:11.704Z,10.18
2019-03-17T06:27:11.691Z,10.21
2019-03-17T06:28:11.703Z,10.14
2019-03-17T06:29:11.674Z,10.12
2019-03-17T06:30:11.675Z,10.26
2019-03-17T06:31:11.673Z,10.25
2019-03-17T06:32:11.669Z,10.25
2019-03-17T06:33:11.652Z,10.30
2019-03-17T06:34:11.652Z,10.26
2019-03-17T06:35:11.658Z,10.33
2019-03-17T06:36:11.650Z,10.34
2019-03-17T06:37:11.657Z,10.24
2019-03-17T06:38:11.615Z,10.33
2019-03-17T06:39:11.625Z,10.42
2019-03-17T06:40:11.617Z,10.53
2019-03-17T06:41:11.593Z,10.51
2019-03-17T06:42:11.623Z,10.53
2019-03-17T06:43:11.586Z,10.58
2019-03-17T06:44:11.571Z,10.52
2019-03-17T06:45:11.576Z,10.58
2019-03-17T06:46:11.576Z,10.51
2019-03-17T06:47:11.564Z,10.62
2019-03-17T06:48:11.554Z,10.60
2019-03-17T06:49:11.542Z,10.59
2019-03-17T06:50:11.541Z,10.68
2019-03-17T06:51:11.536Z,10.65
2019-03-17T06:52:11.520Z,10.68
2019-03-17T06:53:11.515Z,10.76
2019-03-17T06:54:11.511Z,10.73
2019-03-17T06:55:11.545Z,10.84
2019-03-17T06:56:11.493Z,10.73
2019-03-17T06:57:11.490Z,10.74
2019-03-17T06:58:11.497Z,10.80
2019-03-17T06:59:11.477Z,10.66
2019-03-17T07:00:11.470Z,10.86
2019-03-17T07:01:11.480Z,10.88
2019-03-17T07:02:11.455Z,10.95
2019-03-17T07:03:11.450Z,10.96
2019-03-17T07:04:11.442Z,10.95
2019-03-17T07:05:11.437Z,10.94
2019-03-17T07:06:11.426Z,11.02
2019-03-17T07:07:11.423Z,11.03
2019-03-17T07:08:11.417Z,11.01
2019-03-17T07:09:11.427Z,10.92
2019-03-17T07:10:11.421Z,11.10
2019-03-17T07:11:11.391Z,11.14
2019-03-17T07:12:11.400Z,11.21
2019-03-17T07:13:11.382Z,11.25
2019-03-17T07:14:11.378Z,11.28
2019-03-17T07:15:11.369Z,11.39
2019-03-17T07:16:11.369Z,11.29
2019-03-17T07:17:11.367Z,11.28
2019-03-17T07:18:11.350Z,11.25
2019-03-17T07:19:11.349Z,11.43
2019-03-17T07:20:11.374Z,11.36
2019-03-17T07:21:11.333Z,11.35
2019-03-17T07:22:11.339Z,11.29
2019-03-17T07:23:11.324Z,11.36
2019-03-17T07:24:11.321Z,11.31
2019-03-17T07:25:11.334Z,11.39
2019-03-17T07:26:11.302Z,11.25
2019-03-17T07:27:11.292Z,11.31
2019-03-17T07:28:11.290Z,11.29
2019-03-17T07:29:11.285Z,11.39
2019-03-17T07:30:11.283Z,11.34
2019-03-17T07:31:11.269Z,11.36
2019-03-17T07:32:11.268Z,11.35
2019-03-17T07:33:11.262Z,11.28
2019-03-17T07:34:11.261Z,11.35
2019-03-17T07:35:11.281Z,11.44
2019-03-17T07:36:11.251Z,11.47
2019-03-17T07:37:11.251Z,11.54
2019-03-17T07:38:11.249Z,11.53
2019-03-17T07:39:12.354Z,11.50
2019-03-17T07:40:11.238Z,11.47
2019-03-17T07:41:11.253Z,11.54
2019-03-17T07:42:11.207Z,11.65
2019-03-17T07:43:11.204Z,11.65
2019-03-17T07:44:11.206Z,11.57
2019-03-17T07:45:11.199Z,11.70
2019-03-17T07:46:11.195Z,11.77
2019-03-17T07:47:11.188Z,11.75
2019-03-17T07:48:11.224Z,11.75
2019-03-17T07:49:11.197Z,11.78
2019-03-17T07:50:11.195Z,11.83
2019-03-17T07:51:11.209Z,11.80
2019-03-17T07:52:11.151Z,11.86
2019-03-17T07:53:11.153Z,11.93
2019-03-17T07:54:11.146Z,11.90
2019-03-17T07:55:11.139Z,11.90
2019-03-17T07:56:11.147Z,12.01
2019-03-17T07:57:11.147Z,12.04
2019-03-17T07:58:11.116Z,12.09
2019-03-17T07:59:11.107Z,12.11
2019-03-17T08:00:11.110Z,12.13
2019-03-17T08:01:11.097Z,12.12
2019-03-17T08:02:11.118Z,12.15
2019-03-17T08:03:11.102Z,12.15
2019-03-17T08:04:11.090Z,12.04
2019-03-17T08:05:11.075Z,12.08
2019-03-17T08:06:11.104Z,12.12
2019-03-17T08:07:11.069Z,12.11
2019-03-17T08:08:11.082Z,12.27
2019-03-17T08:09:11.094Z,12.41
2019-03-17T08:10:11.058Z,12.39
2019-03-17T08:11:11.040Z,12.21
2019-03-17T08:12:11.041Z,12.13
2019-03-17T08:13:11.041Z,12.13
2019-03-17T08:14:11.033Z,12.29
2019-03-17T08:15:11.029Z,12.46
2019-03-17T08:16:11.037Z,12.34
2019-03-17T08:17:11.037Z,12.46
2019-03-17T08:18:11.009Z,12.41
2019-03-17T08:19:11.010Z,12.62
2019-03-17T08:20:11.004Z,12.46
2019-03-17T08:21:11.020Z,12.54
2019-03-17T08:22:11.002Z,12.57
2019-03-17T08:23:11.007Z,12.60
2019-03-17T08:24:11.030Z,12.66
2019-03-17T08:25:11.066Z,12.49
2019-03-17T08:26:10.970Z,12.66
2019-03-17T08:27:10.961Z,12.51
2019-03-17T08:28:10.971Z,12.56
2019-03-17T08:29:10.981Z,12.67
2019-03-17T08:30:10.972Z,12.71
2019-03-17T08:31:10.938Z,12.66
2019-03-17T08:32:10.938Z,12.71
2019-03-17T08:33:10.941Z,12.81
2019-03-17T08:34:10.926Z,12.82
2019-03-17T08:35:10.929Z,12.71
2019-03-17T08:36:10.921Z,12.79
2019-03-17T08:37:10.916Z,12.81
2019-03-17T08:38:21.424Z,12.95
2019-03-17T08:39:10.914Z,12.87
2019-03-17T08:40:10.900Z,12.97
2019-03-17T08:41:10.891Z,12.99
2019-03-17T08:42:10.890Z,13.00
2019-03-17T08:43:10.882Z,13.00
2019-03-17T08:44:10.901Z,13.02
2019-03-17T08:45:10.875Z,13.11
2019-03-17T08:46:10.886Z,13.07
2019-03-17T08:47:10.884Z,13.12
2019-03-17T08:48:10.875Z,13.11
2019-03-17T08:49:10.887Z,13.18
2019-03-17T08:50:10.849Z,13.18
2019-03-17T08:51:10.844Z,13.25
2019-03-17T08:52:10.861Z,13.20
2019-03-17T08:53:10.835Z,13.21
2019-03-17T08:54:10.828Z,13.30
2019-03-17T08:55:10.828Z,13.40
2019-03-17T08:56:10.832Z,13.54
2019-03-17T08:57:10.817Z,13.49
2019-03-17T08:58:10.815Z,13.52
2019-03-17T08:59:10.822Z,13.61
2019-03-17T09:00:10.809Z,13.69
2019-03-17T09:01:10.851Z,13.61
2019-03-17T09:02:10.811Z,13.74
2019-03-17T09:03:10.822Z,13.79
2019-03-17T09:04:10.787Z,13.84
2019-03-17T09:05:10.818Z,13.84
2019-03-17T09:06:10.823Z,13.84
2019-03-17T09:07:10.770Z,13.89
2019-03-17T09:08:10.816Z,13.89
2019-03-17T09:09:10.817Z,14.06
2019-03-17T09:10:10.781Z,13.96
2019-03-17T09:11:10.764Z,14.01
2019-03-17T09:12:10.768Z,14.09
2019-03-17T09:13:10.799Z,14.02
2019-03-17T09:14:10.949Z,14.02
2019-03-17T09:15:10.770Z,13.96
2019-03-17T09:16:10.810Z,14.07
2019-03-17T09:17:14.693Z,14.14
2019-03-17T09:18:10.729Z,14.14
2019-03-17T09:19:10.734Z,14.19
2019-03-17T09:20:10.760Z,14.02
2019-03-17T09:21:10.724Z,14.14
2019-03-17T09:22:10.712Z,14.20
2019-03-17T09:23:10.737Z,14.21
2019-03-17T09:24:16.977Z,14.29
2019-03-17T09:25:10.723Z,14.20
2019-03-17T09:26:10.698Z,14.12
2019-03-17T09:27:10.732Z,14.16
2019-03-17T09:28:10.692Z,14.12
2019-03-17T09:29:10.687Z,14.10
2019-03-17T09:30:10.712Z,14.14
2019-03-17T09:31:10.786Z,14.20
2019-03-17T09:32:10.688Z,14.25
2019-03-17T09:33:10.670Z,14.16
2019-03-17T09:34:10.669Z,14.25
2019-03-17T09:35:10.779Z,14.31
2019-03-17T09:36:10.676Z,14.25
2019-03-17T09:37:10.768Z,14.29
2019-03-17T09:38:10.667Z,14.25
2019-03-17T09:39:10.659Z,14.14
2019-03-17T09:40:10.651Z,14.25
2019-03-17T09:41:10.659Z,14.25
2019-03-17T09:42:11.208Z,14.17
2019-03-17T09:43:10.683Z,14.13
2019-03-17T09:44:10.653Z,14.28
2019-03-17T09:45:10.631Z,14.31
2019-03-17T09:46:10.631Z,14.38
2019-03-17T09:47:10.724Z,14.37
2019-03-17T09:48:10.618Z,14.37
2019-03-17T09:49:10.704Z,14.46
2019-03-17T09:50:10.613Z,14.37
2019-03-17T09:51:10.609Z,14.50
2019-03-17T09:52:10.621Z,14.44
2019-03-17T09:53:10.641Z,14.47
2019-03-17T09:54:10.616Z,14.50
2019-03-17T09:55:10.602Z,14.49
2019-03-17T09:56:10.618Z,14.49
2019-03-17T09:57:10.595Z,14.46
2019-03-17T09:58:10.607Z,14.37
2019-03-17T09:59:10.607Z,14.42
2019-03-17T10:00:10.585Z,14.60
2019-03-17T10:01:10.580Z,14.60
2019-03-17T10:02:10.606Z,14.64
2019-03-17T10:03:10.581Z,14.67
2019-03-17T10:04:10.572Z,14.61
2019-03-17T10:05:10.578Z,14.61
2019-03-17T10:06:10.573Z,14.72
2019-03-17T10:07:10.574Z,14.75
2019-03-17T10:08:10.550Z,14.75
2019-03-17T10:09:10.592Z,14.83
2019-03-17T10:10:10.557Z,14.88
2019-03-17T10:11:10.813Z,14.88
2019-03-17T10:12:10.538Z,14.86
2019-03-17T10:13:10.538Z,14.83
2019-03-17T10:14:10.545Z,14.91
2019-03-17T10:15:10.665Z,14.84
2019-03-17T10:16:10.563Z,14.74
2019-03-17T10:17:10.586Z,14.84
2019-03-17T10:18:10.519Z,14.84
2019-03-17T10:19:10.543Z,14.78
2019-03-17T10:20:10.537Z,14.80
2019-03-17T10:21:10.519Z,14.78
2019-03-17T10:22:10.542Z,14.80
2019-03-17T10:23:10.513Z,14.80
2019-03-17T10:24:10.551Z,14.81
2019-03-17T10:25:10.506Z,14.75
2019-03-17T10:26:10.510Z,14.91
2019-03-17T10:27:10.508Z,14.91
2019-03-17T10:28:10.497Z,14.86
2019-03-17T10:29:10.491Z,14.83
2019-03-17T10:30:10.492Z,14.88
2019-03-17T10:31:10.485Z,14.88
2019-03-17T10:32:10.499Z,14.83
2019-03-17T10:33:10.485Z,14.93
2019-03-17T10:34:10.511Z,15.01
2019-03-17T10:35:10.485Z,15.01
2019-03-17T10:36:10.479Z,14.94
2019-03-17T10:37:10.473Z,15.08
2019-03-17T10:38:10.468Z,15.02
2019-03-17T10:39:12.614Z,14.75
2019-03-17T10:40:10.468Z,14.78
2019-03-17T10:41:10.451Z,14.93
2019-03-17T10:42:10.454Z,15.02
2019-03-17T10:43:10.485Z,14.91
2019-03-17T10:44:10.454Z,14.87
2019-03-17T10:45:10.443Z,14.95
2019-03-17T10:46:10.460Z,14.88
2019-03-17T10:47:10.445Z,14.94
2019-03-17T10:48:10.442Z,15.01
2019-03-17T10:49:10.446Z,14.91
2019-03-17T10:50:10.431Z,15.05
2019-03-17T10:51:10.453Z,15.19
2019-03-17T10:52:10.424Z,15.20
2019-03-17T10:53:10.433Z,15.06
2019-03-17T10:54:10.418Z,15.08
2019-03-17T10:55:10.428Z,15.17
2019-03-17T10:56:10.420Z,15.23
2019-03-17T10:57:10.409Z,15.23
2019-03-17T10:58:10.410Z,15.27
2019-03-17T10:59:10.409Z,15.27
2019-03-17T11:00:10.404Z,15.28
2019-03-17T11:01:10.397Z,15.27
2019-03-17T11:02:10.394Z,15.42
2019-03-17T11:03:10.392Z,15.36
2019-03-17T11:04:10.493Z,15.28
2019-03-17T11:05:10.391Z,15.31
2019-03-17T11:06:10.385Z,15.28
2019-03-17T11:07:10.387Z,15.24
2019-03-17T11:08:10.385Z,15.26
2019-03-17T11:09:10.377Z,15.28
2019-03-17T11:10:10.371Z,15.38
2019-03-17T11:11:12.183Z,15.27
2019-03-17T11:12:10.376Z,15.31
2019-03-17T11:13:10.361Z,15.24
2019-03-17T11:14:10.370Z,15.33
2019-03-17T11:15:10.360Z,15.33
2019-03-17T11:16:10.368Z,15.38
2019-03-17T11:17:10.363Z,15.43
2019-03-17T11:18:10.356Z,15.45
2019-03-17T11:19:10.355Z,15.57
2019-03-17T11:20:10.361Z,15.56
2019-03-17T11:21:10.339Z,15.72
2019-03-17T11:22:10.350Z,15.70
2019-03-17T11:23:10.393Z,15.70
2019-03-17T11:24:10.336Z,15.64
2019-03-17T11:25:10.335Z,15.57
2019-03-17T11:26:10.332Z,15.43
2019-03-17T11:27:10.328Z,15.31
2019-03-17T11:28:10.335Z,15.42
2019-03-17T11:29:10.338Z,15.45
2019-03-17T11:30:10.331Z,15.52
2019-03-17T11:31:10.326Z,15.54
2019-03-17T11:32:10.335Z,15.38
2019-03-17T11:33:10.600Z,15.36
2019-03-17T11:34:10.368Z,15.43
2019-03-17T11:35:10.319Z,15.28
2019-03-17T11:36:10.318Z,15.33
2019-03-17T11:37:10.319Z,15.26
2019-03-17T11:38:10.323Z,15.23
2019-03-17T11:39:10.318Z,15.12
2019-03-17T11:40:10.317Z,15.17
2019-03-17T11:41:10.330Z,15.21
2019-03-17T11:42:10.300Z,15.17
2019-03-17T11:43:10.301Z,15.26
2019-03-17T11:44:10.292Z,15.15
2019-03-17T11:45:10.297Z,15.05
2019-03-17T11:46:10.295Z,15.05
2019-03-17T11:47:10.293Z,15.06
2019-03-17T11:48:10.285Z,15.03
2019-03-17T11:49:10.283Z,15.17
2019-03-17T11:50:10.292Z,15.12
2019-03-17T11:51:10.284Z,15.03
2019-03-17T11:52:10.286Z,14.93
2019-03-17T11:53:10.276Z,15.08
2019-03-17T11:54:10.267Z,14.94
2019-03-17T11:55:10.313Z,14.91
2019-03-17T11:56:10.281Z,14.93
2019-03-17T11:57:10.292Z,14.93
2019-03-17T11:58:10.273Z,14.80
2019-03-17T11:59:10.264Z,14.78
2019-03-17T12:00:10.259Z,14.72
2019-03-17T12:01:10.266Z,14.80
2019-03-17T12:02:10.277Z,14.88
2019-03-17T12:03:10.258Z,14.74
2019-03-17T12:04:10.316Z,14.86
2019-03-17T12:05:10.289Z,14.81
2019-03-17T12:06:10.249Z,14.69
2019-03-17T12:07:10.235Z,14.61
2019-03-17T12:08:10.268Z,14.65
2019-03-17T12:09:10.240Z,14.57
2019-03-17T12:10:10.235Z,14.52
2019-03-17T12:11:10.232Z,14.44
2019-03-17T12:12:10.273Z,14.38
2019-03-17T12:13:10.257Z,14.43
2019-03-17T12:14:10.239Z,14.20
2019-03-17T12:15:10.250Z,14.20
2019-03-17T12:16:10.222Z,14.24
2019-03-17T12:17:10.251Z,14.14
2019-03-17T12:18:10.211Z,14.19
2019-03-17T12:19:10.213Z,13.96
2019-03-17T12:20:10.210Z,14.04
2019-03-17T12:21:10.217Z,13.81
2019-03-17T12:22:10.227Z,13.76
2019-03-17T12:23:10.199Z,13.76
2019-03-17T12:24:10.194Z,13.62
2019-03-17T12:25:11.550Z,13.65
2019-03-17T12:26:10.198Z,13.58
2019-03-17T12:27:10.200Z,13.56
2019-03-17T12:28:10.243Z,13.44
2019-03-17T12:29:10.186Z,13.30
2019-03-17T12:30:10.181Z,13.25
2019-03-17T12:31:10.176Z,13.00
2019-03-17T12:32:10.290Z,12.97
2019-03-17T12:33:10.164Z,12.95
2019-03-17T12:34:10.164Z,12.88
2019-03-17T12:35:10.157Z,12.67
2019-03-17T12:36:10.219Z,12.70
2019-03-17T12:37:10.156Z,12.52
2019-03-17T12:38:10.160Z,12.49
2019-03-17T12:39:10.142Z,12.51
2019-03-17T12:40:10.149Z,12.33
2019-03-17T12:41:10.139Z,12.49
2019-03-17T12:42:10.150Z,12.37
2019-03-17T12:43:10.132Z,12.26
2019-03-17T12:44:10.178Z,12.20
2019-03-17T12:45:10.124Z,12.20
2019-03-17T12:46:10.122Z,12.15
2019-03-17T12:47:10.132Z,12.15
2019-03-17T12:48:10.103Z,12.13
2019-03-17T12:49:10.101Z,12.15
2019-03-17T12:50:10.101Z,12.09
2019-03-17T12:51:10.094Z,12.15
2019-03-17T12:52:10.098Z,12.04
2019-03-17T12:53:10.083Z,12.01
2019-03-17T12:54:10.074Z,11.78
2019-03-17T12:55:10.083Z,11.59
2019-03-17T12:56:10.093Z,11.67
2019-03-17T12:57:10.066Z,11.62
2019-03-17T12:58:10.065Z,11.47
2019-03-17T12:59:10.065Z,11.43
2019-03-17T13:00:10.051Z,11.21
2019-03-17T13:01:10.055Z,11.25
2019-03-17T13:02:10.060Z,11.25
2019-03-17T13:03:10.034Z,11.16
2019-03-17T13:04:10.034Z,11.20
2019-03-17T13:05:10.028Z,11.14
2019-03-17T13:06:10.020Z,11.03
2019-03-17T13:07:10.010Z,10.73
2019-03-17T13:08:10.054Z,10.76
2019-03-17T13:09:10.108Z,10.84
2019-03-17T13:10:15.608Z,10.70
2019-03-17T13:11:10.030Z,10.59
2019-03-17T13:12:09.991Z,10.66
2019-03-17T13:13:09.983Z,10.56
2019-03-17T13:14:09.980Z,10.40
2019-03-17T13:15:09.978Z,10.33
2019-03-17T13:16:09.966Z,10.34
2019-03-17T13:17:09.962Z,10.40
2019-03-17T13:18:09.963Z,10.17